Clemson, South Carolina
Current Conditions -  °F | °C
As of 2:54 PM on Saturday 25 Oct 2014 (Local Time) from KCEU Reporting Station
Clear Clear  
Wind Chill: 74°   Ceiling: Unl
Heat Index: 74°   Visibility: 10mi
Dew Point: 44°   Wind: 7mph
Humidity: 34%   Direction: 260°W
Pressure: 30"   Gusts: NA
Location:  34.68°N, 82.84°W
Report Text: KCEU 251854Z AUTO 26006KT 10SM CLR 23/07 A3000 RMK AO2 SLP153 T02330067
Loading
Personal Weather Stations






























Interactive Weather Map
Tropical Storm Tracking
New forecast layout! Learn more

10-Day Weather Forecast

Advertisements
Track Severe Weather on mobile